Bud Sonier — WDE9248 — position and weather

sailwx.info

Track history (hours):
 
Tides and Currents Weather Stations Pressure Air Temp Water Temp Dewpoint Dewpoint Depression Visibility Wind Speed Wind Dir Waves Ship Positions

Bud Sonier

Owner: LeBeouf Bros. Towing, LLC, Houma, LA. More information available from US FCC via Universal Licensing System and Coast Guard Vessel Documentation Center.

Last reported at 2018-Feb-21 04:47 UTC. Time now 2018-Feb-21 19:39 UTC.
Position N 29°14' W 095°13'.

Length 22 m; draft 3 m.

Type: Towing. MMSI: 367415180.

Date/timePositionNaut miles runAvg speedWind from/ knotsBaromVisibWave heightAir tempDewpointWater temp
2018-Feb-21 04:47N 29°14' W 095°13'0 0.0
2018-Feb-21 02:55N 29°14' W 095°13'0 0.0
2018-Feb-21 02:21N 29°14' W 095°13'0 0.0
2018-Feb-20 17:02N 29°14' W 095°13'0 0.0
2018-Feb-20 16:52N 29°14' W 095°13'2 1.0
2018-Feb-20 14:44N 29°12' W 095°12'4 6.5
2018-Feb-20 14:05N 29°10' W 095°08'1 7.5
2018-Feb-20 13:55N 29°10' W 095°06'4 8.1
2018-Feb-20 13:28N 29°12' W 095°03'3 6.5
2018-Feb-20 12:59N 29°15' W 095°01'2 3.6
2018-Feb-20 12:24N 29°16' W 094°59'0 0.0
2018-Feb-20 11:50N 29°16' W 094°59'0 0.0
2018-Feb-20 11:04N 29°16' W 094°59'0 0.0
2018-Feb-20 10:43N 29°16' W 094°59'0 0.0
2018-Feb-20 10:26N 29°16' W 094°59'0 0.0
2018-Feb-20 09:42N 29°16' W 094°59'0 0.0
2018-Feb-20 09:28N 29°16' W 094°59'5 3.3
2018-Feb-20 08:03N 29°17' W 094°54'1 8.2
2018-Feb-20 07:57N 29°18' W 094°53'4 7.2
2018-Feb-20 07:22N 29°21' W 094°50'3 8.0
2018-Feb-20 07:00N 29°22' W 094°47'3 5.1
2018-Feb-20 06:29N 29°24' W 094°45'1 2.2
2018-Feb-20 05:58N 29°25' W 094°44'5 7.3
2018-Feb-20 05:18N 29°28' W 094°39'2 7.2
2018-Feb-20 04:59N 29°29' W 094°37'8 3.5
2018-Feb-20 02:45N 29°32' W 094°29'2 6.5
2018-Feb-20 02:27N 29°34' W 094°28'3 6.4
2018-Feb-20 02:00N 29°35' W 094°25'2 4.3
2018-Feb-20 01:30N 29°36' W 094°23'0 0.0
2018-Feb-20 01:00N 29°36' W 094°23'3 6.3
2018-Feb-20 00:30N 29°38' W 094°19'3 6.4
2018-Feb-20 00:00N 29°39' W 094°16'4 8.1
2018-Feb-19 23:30N 29°41' W 094°12'3 5.4
2018-Feb-19 23:00N 29°42' W 094°09'0 0.8
2018-Feb-19 22:30N 29°42' W 094°09'4 7.9
2018-Feb-19 22:00N 29°44' W 094°05'4 8.0
2018-Feb-19 21:30N 29°47' W 094°01'4 6.9
2018-Feb-19 21:00N 29°49' W 093°58'2 4.7
2018-Feb-19 20:30N 29°51' W 093°57'3 5.6
2018-Feb-19 20:00N 29°53' W 093°55'4 7.3
2018-Feb-19 19:30N 29°56' W 093°52'4 7.5
2018-Feb-19 19:00N 29°59' W 093°49'4 7.5
2018-Feb-19 18:30N 30°01' W 093°46'3 6.7
2018-Feb-19 17:59N 30°03' W 093°43'2 4.2
2018-Feb-19 17:30N 30°04' W 093°40'3 5.3
2018-Feb-19 17:00N 30°04' W 093°37'3 6.7
2018-Feb-19 16:30N 30°04' W 093°33'4 7.0
2018-Feb-19 16:00N 30°04' W 093°29'4 7.5
2018-Feb-19 15:30N 30°04' W 093°25'3 6.2
2018-Feb-19 15:00N 30°04' W 093°22'3 6.0
2018-Feb-19 14:26N 30°06' W 093°19'2 2.9
2018-Feb-19 13:55N 30°05' W 093°17'1 2.1
2018-Feb-19 13:30N 30°05' W 093°17'1 1.8
2018-Feb-19 13:00N 30°04' W 093°16'0 0.4
2018-Feb-19 12:30N 30°04' W 093°16'3 6.1
2018-Feb-19 12:00N 30°01' W 093°14'3 6.8
2018-Feb-19 11:30N 29°58' W 093°12'3 6.9
2018-Feb-19 11:00N 29°56' W 093°09'3 6.4
2018-Feb-19 10:29N 29°56' W 093°05'16 5.6
2018-Feb-19 07:33N 29°58' W 092°46'0 0.0
2018-Feb-19 07:29N 29°58' W 092°46'5 5.3
2018-Feb-19 06:32N 29°56' W 092°41'17 6.5
2018-Feb-19 03:54N 29°51' W 092°22'3 6.6
2018-Feb-19 03:30N 29°50' W 092°19'3 6.6
2018-Feb-19 03:00N 29°48' W 092°16'3 6.9
2018-Feb-19 02:30N 29°47' W 092°12'4 7.1
2018-Feb-19 02:00N 29°47' W 092°08'4 7.1
2018-Feb-19 01:30N 29°48' W 092°04'4 7.5
2018-Feb-19 01:00N 29°50' W 092°00'4 7.4
2018-Feb-19 00:30N 29°51' W 091°56'52 6.6
2018-Feb-18 16:32N 29°36' W 090°58'0 7.3
2018-Feb-18 16:30N 29°35' W 090°58'4 7.3
2018-Feb-18 16:00N 29°33' W 090°55'4 7.2
2018-Feb-18 15:30N 29°32' W 090°51'4 7.5
2018-Feb-18 15:00N 29°32' W 090°46'3 5.2
2018-Feb-18 14:30N 29°34' W 090°44'2 4.2
2018-Feb-18 14:00N 29°36' W 090°43'2 3.0
2018-Feb-18 13:30N 29°37' W 090°42'0 0.0
2018-Feb-18 13:00N 29°37' W 090°42'0 0.0
2018-Feb-18 12:30N 29°37' W 090°42'0 0.0
2018-Feb-18 12:00N 29°37' W 090°42'0 0.0
2018-Feb-18 11:30N 29°37' W 090°42'0 0.0
2018-Feb-18 11:00N 29°37' W 090°42'0 0.0
2018-Feb-18 10:30N 29°37' W 090°42'0 0.0
2018-Feb-18 10:00N 29°37' W 090°42'0 0.0
2018-Feb-18 09:30N 29°37' W 090°42'0 0.0
2018-Feb-18 09:00N 29°37' W 090°42'0 0.0
2018-Feb-18 08:30N 29°37' W 090°42'0 0.0
2018-Feb-18 08:00N 29°37' W 090°42'0 0.0
2018-Feb-18 07:30N 29°37' W 090°42'0 0.0
2018-Feb-18 07:00N 29°37' W 090°42'0 0.0
2018-Feb-18 06:30N 29°37' W 090°42'0 0.0
2018-Feb-18 06:00N 29°37' W 090°42'0 0.8
2018-Feb-18 05:30N 29°36' W 090°41'3 4.9
2018-Feb-18 05:00N 29°35' W 090°39'3 5.7
2018-Feb-18 04:30N 29°35' W 090°35'3 5.7
2018-Feb-18 03:58N 29°34' W 090°32'  
Track history (hours):
 
Tides and Currents Weather Stations Pressure Air Temp Water Temp Dewpoint Dewpoint Depression Visibility Wind Speed Wind Dir Waves Ship Positions

Bud Sonier

Owner: LeBeouf Bros. Towing, LLC, Houma, LA. More information available from US FCC via Universal Licensing System and Coast Guard Vessel Documentation Center.

Last reported at 2018-Feb-21 04:47 UTC. Time now 2018-Feb-21 19:39 UTC.
Position N 29°14' W 095°13'.

Length 22 m; draft 3 m.

Type: Towing. MMSI: 367415180.

Date/timePositionNaut miles runAvg speedWind from/ knotsBaromVisibWave heightAir tempDewpointWater temp
2018-Feb-21 04:47N 29°14' W 095°13'0 0.0
2018-Feb-21 02:55N 29°14' W 095°13'0 0.0
2018-Feb-21 02:21N 29°14' W 095°13'0 0.0
2018-Feb-20 17:02N 29°14' W 095°13'0 0.0
2018-Feb-20 16:52N 29°14' W 095°13'2 1.0
2018-Feb-20 14:44N 29°12' W 095°12'4 6.5
2018-Feb-20 14:05N 29°10' W 095°08'1 7.5
2018-Feb-20 13:55N 29°10' W 095°06'4 8.1
2018-Feb-20 13:28N 29°12' W 095°03'3 6.5
2018-Feb-20 12:59N 29°15' W 095°01'2 3.6
2018-Feb-20 12:24N 29°16' W 094°59'0 0.0
2018-Feb-20 11:50N 29°16' W 094°59'0 0.0
2018-Feb-20 11:04N 29°16' W 094°59'0 0.0
2018-Feb-20 10:43N 29°16' W 094°59'0 0.0
2018-Feb-20 10:26N 29°16' W 094°59'0 0.0
2018-Feb-20 09:42N 29°16' W 094°59'0 0.0
2018-Feb-20 09:28N 29°16' W 094°59'5 3.3
2018-Feb-20 08:03N 29°17' W 094°54'1 8.2
2018-Feb-20 07:57N 29°18' W 094°53'4 7.2
2018-Feb-20 07:22N 29°21' W 094°50'3 8.0
2018-Feb-20 07:00N 29°22' W 094°47'3 5.1
2018-Feb-20 06:29N 29°24' W 094°45'1 2.2
2018-Feb-20 05:58N 29°25' W 094°44'5 7.3
2018-Feb-20 05:18N 29°28' W 094°39'2 7.2
2018-Feb-20 04:59N 29°29' W 094°37'8 3.5
2018-Feb-20 02:45N 29°32' W 094°29'2 6.5
2018-Feb-20 02:27N 29°34' W 094°28'3 6.4
2018-Feb-20 02:00N 29°35' W 094°25'2 4.3
2018-Feb-20 01:30N 29°36' W 094°23'0 0.0
2018-Feb-20 01:00N 29°36' W 094°23'3 6.3
2018-Feb-20 00:30N 29°38' W 094°19'3 6.4
2018-Feb-20 00:00N 29°39' W 094°16'4 8.1
2018-Feb-19 23:30N 29°41' W 094°12'3 5.4
2018-Feb-19 23:00N 29°42' W 094°09'0 0.8
2018-Feb-19 22:30N 29°42' W 094°09'4 7.9
2018-Feb-19 22:00N 29°44' W 094°05'4 8.0
2018-Feb-19 21:30N 29°47' W 094°01'4 6.9
2018-Feb-19 21:00N 29°49' W 093°58'2 4.7
2018-Feb-19 20:30N 29°51' W 093°57'3 5.6
2018-Feb-19 20:00N 29°53' W 093°55'4 7.3
2018-Feb-19 19:30N 29°56' W 093°52'4 7.5
2018-Feb-19 19:00N 29°59' W 093°49'4 7.5
2018-Feb-19 18:30N 30°01' W 093°46'3 6.7
2018-Feb-19 17:59N 30°03' W 093°43'2 4.2
2018-Feb-19 17:30N 30°04' W 093°40'3 5.3
2018-Feb-19 17:00N 30°04' W 093°37'3 6.7
2018-Feb-19 16:30N 30°04' W 093°33'4 7.0
2018-Feb-19 16:00N 30°04' W 093°29'4 7.5
2018-Feb-19 15:30N 30°04' W 093°25'3 6.2
2018-Feb-19 15:00N 30°04' W 093°22'3 6.0
2018-Feb-19 14:26N 30°06' W 093°19'2 2.9
2018-Feb-19 13:55N 30°05' W 093°17'1 2.1
2018-Feb-19 13:30N 30°05' W 093°17'1 1.8
2018-Feb-19 13:00N 30°04' W 093°16'0 0.4
2018-Feb-19 12:30N 30°04' W 093°16'3 6.1
2018-Feb-19 12:00N 30°01' W 093°14'3 6.8
2018-Feb-19 11:30N 29°58' W 093°12'3 6.9
2018-Feb-19 11:00N 29°56' W 093°09'3 6.4
2018-Feb-19 10:29N 29°56' W 093°05'16 5.6
2018-Feb-19 07:33N 29°58' W 092°46'0 0.0
2018-Feb-19 07:29N 29°58' W 092°46'5 5.3
2018-Feb-19 06:32N 29°56' W 092°41'17 6.5
2018-Feb-19 03:54N 29°51' W 092°22'3 6.6
2018-Feb-19 03:30N 29°50' W 092°19'3 6.6
2018-Feb-19 03:00N 29°48' W 092°16'3 6.9
2018-Feb-19 02:30N 29°47' W 092°12'4 7.1
2018-Feb-19 02:00N 29°47' W 092°08'4 7.1
2018-Feb-19 01:30N 29°48' W 092°04'4 7.5
2018-Feb-19 01:00N 29°50' W 092°00'4 7.4
2018-Feb-19 00:30N 29°51' W 091°56'52 6.6
2018-Feb-18 16:32N 29°36' W 090°58'0 7.3
2018-Feb-18 16:30N 29°35' W 090°58'4 7.3
2018-Feb-18 16:00N 29°33' W 090°55'4 7.2
2018-Feb-18 15:30N 29°32' W 090°51'4 7.5
2018-Feb-18 15:00N 29°32' W 090°46'3 5.2
2018-Feb-18 14:30N 29°34' W 090°44'2 4.2
2018-Feb-18 14:00N 29°36' W 090°43'2 3.0
2018-Feb-18 13:30N 29°37' W 090°42'0 0.0
2018-Feb-18 13:00N 29°37' W 090°42'0 0.0
2018-Feb-18 12:30N 29°37' W 090°42'0 0.0
2018-Feb-18 12:00N 29°37' W 090°42'0 0.0
2018-Feb-18 11:30N 29°37' W 090°42'0 0.0
2018-Feb-18 11:00N 29°37' W 090°42'0 0.0
2018-Feb-18 10:30N 29°37' W 090°42'0 0.0
2018-Feb-18 10:00N 29°37' W 090°42'0 0.0
2018-Feb-18 09:30N 29°37' W 090°42'0 0.0
2018-Feb-18 09:00N 29°37' W 090°42'0 0.0
2018-Feb-18 08:30N 29°37' W 090°42'0 0.0
2018-Feb-18 08:00N 29°37' W 090°42'0 0.0
2018-Feb-18 07:30N 29°37' W 090°42'0 0.0
2018-Feb-18 07:00N 29°37' W 090°42'0 0.0
2018-Feb-18 06:30N 29°37' W 090°42'0 0.0
2018-Feb-18 06:00N 29°37' W 090°42'0 0.8
2018-Feb-18 05:30N 29°36' W 090°41'3 4.9
2018-Feb-18 05:00N 29°35' W 090°39'3 5.7
2018-Feb-18 04:30N 29°35' W 090°35'3 5.7
2018-Feb-18 03:58N 29°34' W 090°32'  

Dump ship's entire track history